LSZS/SMV METAR and TAF weather

Enter ICAO airport designator
Station Type Date Time Source
LSZS METAR 2020/09/25 20:20 UTC NOAA

LSZS 252020Z AUTO VRB02KT 3500 -SN FEW016 BKN031 M01/M01 Q0999 REFZDZ


Station Type Date Time Source
LSZS Decoded METAR 2020/09/25 20:20 UTC NOAA

Station name not available
Sep 25, 2020 - 04:20 PM EDT / 2020.09.25 2020 UTC
Wind: Variable at 2 MPH (2 KT):0
Visibility: 2 mile(s):0
Sky conditions: mostly cloudy
Weather: light snow
Temperature: 30 F (-1 C)
Dew Point: 30 F (-1 C)
Relative Humidity: 100%
Pressure (altimeter): 29.50 in. Hg (0999 hPa)
ob: LSZS 252020Z AUTO VRB02KT 3500 -SN FEW016 BKN031 M01/M01 Q0999 REFZDZ
cycle: 20

Station Type Date Time Source
LSZS TAF 2014/12/22 20:03 UTC NOAA

TAF
AMD LSZS 222054Z 2220/2224 CNL

Example: see airport list